Etusivu
METAR-TAF:

METAR-TAF

Lentoasemat :

Estherville Municipal Airport

Estherville, Iowa, Yhdysvallat

Leveyspiiri: 43-24-04N, Pituuspiiri: 094-44-50W, korkeus merenpinnasta: 401 m

Tämänhetkinen sää

Tämä raportti tehtiin 36 minuuttia sitten, kello 19.52 UTC
Tuuli 8 kn luoteesta
Lämpötila -4°C
Kosteus 68%
Ilmanpaine 1025 hPa
Näkyvyys: 16.1 km
selkeää

METAR: KEST 261952Z AUTO 32008KT 10SM CLR M04/M09 A3027 RMK AO2 SLP274 T10391089

Aika: 14:28 (20:28 UTC)


TAF: puuttuu

Säähavainnot ja -ennusteet yli 4000 lentoasemalta (METAR- ja TAF-raportit).

Käytössä olevat sääasemat on merkitty karttaan keltaisilla ja punaisilla pisteillä.

Aseta hiiri pisteen päälle nähdäksesi sääaseman nimen.

Klikkaa sitten nähdäksesi säähavainnot ja -ennusteet.

Kartan vaihtaminen: klikkaa mustalla rastilla varustettuja vihreitä pisteitä, niin voit zoomata sisään; viivalla varustettua vihreää pistettä, niin voit zoomata ulos tai vihreitä nuolia, niin pääset viereisille kartoille.


METAR-TAF: